Time;durP1;ratioP1;P1;durP2;ratioP2;P2;SDS_P1;SDS_P2;PMS_P1;PMS_P2;Temp;Humidity;BMP_temperature;BMP_pressure;BME280_temperature;BME280_humidity;BME280_pressure;Samples;Min_cycle;Max_cycle;Signal;HPM_P1;HPM_P2
2024/01/15 00:00:57;;;;;;;24.23;10.13;;;;;;;;;;4955659;29;20063;-79
2024/01/15 00:03:24;;;;;;;25.15;9.00;;;;;;;;;;4937213;29;20043;-83
2024/01/15 00:05:51;;;;;;;23.00;8.85;;;;;;;;;;4952894;29;20052;-82
2024/01/15 00:08:18;;;;;;;19.73;8.13;;;;;;;;;;4925496;29;20055;-83
2024/01/15 00:10:45;;;;;;;17.95;7.85;;;;;;;;;;4955168;29;20107;-83
2024/01/15 00:13:12;;;;;;;19.58;8.30;;;;;;;;;;4921077;29;20504;-83
2024/01/15 00:15:38;;;;;;;20.42;8.30;;;;;;;;;;4936914;29;20117;-83
2024/01/15 00:18:05;;;;;;;23.35;8.88;;;;;;;;;;4938413;29;20047;-82
2024/01/15 00:20:33;;;;;;;24.35;9.02;;;;;;;;;;4924640;29;20063;-82
2024/01/15 00:22:59;;;;;;;20.50;7.60;;;;;;;;;;4924472;29;20474;-81
2024/01/15 00:25:26;;;;;;;20.88;8.27;;;;;;;;;;4939757;29;20565;-81
2024/01/15 00:27:53;;;;;;;20.35;7.72;;;;;;;;;;4955063;29;20062;-81
2024/01/15 00:30:20;;;;;;;24.88;9.18;;;;;;;;;;4924002;29;20066;-81
2024/01/15 00:32:47;;;;;;;19.27;7.80;;;;;;;;;;4953383;29;20052;-80
2024/01/15 00:35:13;;;;;;;22.77;8.18;;;;;;;;;;4924778;29;20081;-80
2024/01/15 00:37:41;;;;;;;17.95;7.68;;;;;;;;;;4935941;29;20058;-80
2024/01/15 00:40:08;;;;;;;16.95;8.13;;;;;;;;;;4919845;29;20078;-79
2024/01/15 00:42:35;;;;;;;19.13;7.80;;;;;;;;;;4938391;29;20054;-80
2024/01/15 00:45:02;;;;;;;19.75;7.80;;;;;;;;;;4930334;29;20079;-78
2024/01/15 00:47:29;;;;;;;18.85;7.85;;;;;;;;;;4922960;29;20051;-80
2024/01/15 00:49:56;;;;;;;16.70;6.57;;;;;;;;;;4924432;29;20078;-80
2024/01/15 00:52:22;;;;;;;17.90;7.50;;;;;;;;;;4924768;29;20078;-79
2024/01/15 00:54:49;;;;;;;21.05;7.70;;;;;;;;;;4944124;29;20075;-79
2024/01/15 00:57:18;;;;;;;24.02;8.88;;;;;;;;;;4921077;29;20059;-80
2024/01/15 00:59:47;;;;;;;17.45;7.82;;;;;;;;;;4938655;28;20055;-79
2024/01/15 01:02:14;;;;;;;26.67;9.20;;;;;;;;;;4919223;29;20055;-79
2024/01/15 01:04:40;;;;;;;20.90;8.23;;;;;;;;;;4936515;29;20117;-79
2024/01/15 01:07:07;;;;;;;17.70;7.63;;;;;;;;;;4923969;29;20118;-80
2024/01/15 01:09:34;;;;;;;21.25;8.70;;;;;;;;;;4921870;29;20607;-79
2024/01/15 01:12:01;;;;;;;19.67;8.77;;;;;;;;;;4936273;29;20138;-80
2024/01/15 01:14:27;;;;;;;19.05;7.57;;;;;;;;;;4922296;29;20051;-79
2024/01/15 01:16:54;;;;;;;20.88;8.43;;;;;;;;;;4920071;29;20079;-80
2024/01/15 01:19:21;;;;;;;18.25;6.82;;;;;;;;;;4920849;29;20055;-79
2024/01/15 01:21:50;;;;;;;20.90;8.73;;;;;;;;;;4920582;29;20518;-80
2024/01/15 01:24:17;;;;;;;16.52;6.18;;;;;;;;;;4932702;28;20602;-81
2024/01/15 01:26:46;;;;;;;16.17;7.30;;;;;;;;;;4919244;29;20047;-79
2024/01/15 01:29:13;;;;;;;22.42;8.30;;;;;;;;;;4921953;29;20051;-80
2024/01/15 01:31:46;;;;;;;19.75;8.70;;;;;;;;;;4935352;29;20055;-79
2024/01/15 01:34:14;;;;;;;24.30;8.80;;;;;;;;;;4921106;29;20098;-81
2024/01/15 01:36:42;;;;;;;22.35;9.68;;;;;;;;;;4921137;29;20066;-81
2024/01/15 01:39:09;;;;;;;22.63;9.25;;;;;;;;;;4921000;29;20055;-81
2024/01/15 01:41:39;;;;;;;27.50;10.18;;;;;;;;;;4933904;28;20418;-81
2024/01/15 01:44:07;;;;;;;25.40;9.70;;;;;;;;;;4921579;29;20047;-81
2024/01/15 01:46:34;;;;;;;23.52;9.50;;;;;;;;;;4921721;29;20051;-81
2024/01/15 01:49:05;;;;;;;23.30;8.93;;;;;;;;;;4937035;29;20070;-80
2024/01/15 01:51:33;;;;;;;26.15;10.30;;;;;;;;;;4939024;28;20439;-79
2024/01/15 01:54:00;;;;;;;25.58;8.77;;;;;;;;;;4937518;29;20077;-80
2024/01/15 01:56:27;;;;;;;19.38;7.32;;;;;;;;;;4923376;29;20055;-80
2024/01/15 01:58:54;;;;;;;20.30;7.57;;;;;;;;;;4933935;29;20082;-80
2024/01/15 02:01:20;;;;;;;20.15;7.47;;;;;;;;;;4927496;29;20055;-81
2024/01/15 02:03:47;;;;;;;13.45;6.60;;;;;;;;;;4937306;29;20430;-81
2024/01/15 02:06:14;;;;;;;17.20;6.95;;;;;;;;;;4923488;28;20471;-80
2024/01/15 02:08:43;;;;;;;14.10;5.78;;;;;;;;;;4919838;29;20489;-81
2024/01/15 02:11:10;;;;;;;15.77;6.38;;;;;;;;;;4924248;29;20054;-81
2024/01/15 02:13:39;;;;;;;17.35;7.30;;;;;;;;;;4923726;29;20063;-80
2024/01/15 02:16:06;;;;;;;17.33;6.82;;;;;;;;;;4938726;29;20494;-80
2024/01/15 02:18:46;;;;;;;19.42;7.28;;;;;;;;;;4924178;29;20078;-79
2024/01/15 02:21:13;;;;;;;13.68;5.97;;;;;;;;;;4926708;29;20071;-79
2024/01/15 02:23:40;;;;;;;14.65;5.60;;;;;;;;;;4921631;29;20515;-80
2024/01/15 02:26:07;;;;;;;17.13;6.28;;;;;;;;;;4925392;29;20101;-79
2024/01/15 02:28:33;;;;;;;14.35;6.60;;;;;;;;;;4938334;29;20074;-79
2024/01/15 02:31:00;;;;;;;17.33;6.18;;;;;;;;;;4925019;29;20058;-79
2024/01/15 02:33:27;;;;;;;13.77;6.03;;;;;;;;;;4925431;29;20086;-80
2024/01/15 02:35:54;;;;;;;11.52;5.50;;;;;;;;;;4925875;29;20051;-80
2024/01/15 02:38:21;;;;;;;16.50;6.32;;;;;;;;;;4924539;29;20055;-80
2024/01/15 02:40:49;;;;;;;13.23;5.45;;;;;;;;;;4923853;29;20081;-80
2024/01/15 02:43:18;;;;;;;14.82;5.93;;;;;;;;;;4925588;29;20066;-80
2024/01/15 02:45:46;;;;;;;15.00;6.13;;;;;;;;;;4925097;29;20146;-80
2024/01/15 02:48:13;;;;;;;14.25;6.35;;;;;;;;;;4925623;29;20055;-81
2024/01/15 02:50:40;;;;;;;15.43;6.22;;;;;;;;;;4927028;29;20051;-81
2024/01/15 02:53:07;;;;;;;15.05;5.55;;;;;;;;;;4923492;29;20082;-81
2024/01/15 02:55:34;;;;;;;13.73;5.55;;;;;;;;;;4924833;29;20048;-81
2024/01/15 02:58:01;;;;;;;15.30;6.30;;;;;;;;;;4955624;29;20102;-80
2024/01/15 03:00:28;;;;;;;13.27;5.80;;;;;;;;;;4938369;29;20073;-80
2024/01/15 03:02:55;;;;;;;14.45;6.22;;;;;;;;;;4940617;29;20463;-80
2024/01/15 03:05:22;;;;;;;12.23;5.20;;;;;;;;;;4922375;29;20688;-81
2024/01/15 03:07:49;;;;;;;16.58;6.03;;;;;;;;;;4938187;29;20468;-81
2024/01/15 03:10:15;;;;;;;16.02;6.07;;;;;;;;;;4923356;29;20114;-81
2024/01/15 03:12:42;;;;;;;15.45;5.43;;;;;;;;;;4921822;29;20059;-81
2024/01/15 03:15:09;;;;;;;14.32;5.43;;;;;;;;;;4939562;29;20055;-82
2024/01/15 03:17:36;;;;;;;13.88;6.57;;;;;;;;;;4938492;28;20086;-82
2024/01/15 03:20:03;;;;;;;13.25;5.82;;;;;;;;;;4937708;29;20062;-82
2024/01/15 03:22:30;;;;;;;13.75;6.25;;;;;;;;;;4939617;29;20054;-81
2024/01/15 03:24:57;;;;;;;14.18;5.97;;;;;;;;;;4923503;29;20109;-81
2024/01/15 03:27:25;;;;;;;15.40;6.57;;;;;;;;;;4921805;29;20043;-82
2024/01/15 03:29:52;;;;;;;14.85;6.80;;;;;;;;;;4939407;29;20119;-81
2024/01/15 03:32:19;;;;;;;13.80;6.25;;;;;;;;;;4928004;29;20074;-82
2024/01/15 03:34:47;;;;;;;15.20;5.22;;;;;;;;;;4935036;28;20115;-81
2024/01/15 03:37:14;;;;;;;14.40;6.00;;;;;;;;;;4922487;29;20047;-81
2024/01/15 03:39:41;;;;;;;11.07;5.60;;;;;;;;;;4939983;29;20115;-81
2024/01/15 03:42:08;;;;;;;12.70;5.47;;;;;;;;;;4924209;29;20087;-80
2024/01/15 03:44:35;;;;;;;11.88;5.05;;;;;;;;;;4922600;29;20047;-80
2024/01/15 03:47:02;;;;;;;11.13;4.95;;;;;;;;;;4923515;29;20044;-80
2024/01/15 03:49:28;;;;;;;15.20;7.07;;;;;;;;;;4921473;29;20086;-79
2024/01/15 03:51:55;;;;;;;14.05;5.93;;;;;;;;;;4922936;29;20451;-80
2024/01/15 03:54:22;;;;;;;14.73;7.03;;;;;;;;;;4924287;29;20125;-80
2024/01/15 03:56:49;;;;;;;14.07;6.25;;;;;;;;;;4940625;29;20114;-82
2024/01/15 03:59:16;;;;;;;13.35;6.30;;;;;;;;;;4923797;29;20055;-82
2024/01/15 04:01:49;;;;;;;14.75;5.72;;;;;;;;;;4924363;29;20108;-82
2024/01/15 04:04:17;;;;;;;16.17;6.35;;;;;;;;;;4919889;29;20054;-82
2024/01/15 04:06:44;;;;;;;19.02;6.05;;;;;;;;;;4929863;29;20058;-82
2024/01/15 04:09:13;;;;;;;17.48;6.43;;;;;;;;;;4926657;29;20061;-81
2024/01/15 04:11:40;;;;;;;17.48;6.63;;;;;;;;;;4933844;28;20066;-82
2024/01/15 04:14:07;;;;;;;14.23;6.22;;;;;;;;;;4928807;29;20062;-81
2024/01/15 04:16:34;;;;;;;14.77;6.78;;;;;;;;;;4925689;29;20055;-81
2024/01/15 04:19:00;;;;;;;15.77;6.13;;;;;;;;;;4946656;28;20069;-81
2024/01/15 04:21:27;;;;;;;10.88;5.28;;;;;;;;;;4934779;29;20059;-81
2024/01/15 04:23:54;;;;;;;12.73;5.38;;;;;;;;;;4931591;29;20125;-82
2024/01/15 04:26:21;;;;;;;12.73;5.65;;;;;;;;;;4943482;28;20078;-81
2024/01/15 04:28:48;;;;;;;12.25;5.43;;;;;;;;;;4923668;29;20431;-81
2024/01/15 04:31:26;;;;;;;14.70;5.75;;;;;;;;;;4923922;29;20074;-81
2024/01/15 04:33:54;;;;;;;13.50;5.28;;;;;;;;;;4924122;29;20404;-81
2024/01/15 04:36:21;;;;;;;10.57;5.05;;;;;;;;;;4920774;29;20056;-81
2024/01/15 04:38:48;;;;;;;13.85;4.75;;;;;;;;;;4937592;28;20097;-80
2024/01/15 04:41:16;;;;;;;9.90;4.75;;;;;;;;;;4923455;29;20051;-81
2024/01/15 04:43:43;;;;;;;13.80;5.03;;;;;;;;;;4923986;29;20430;-82
2024/01/15 04:46:10;;;;;;;15.15;5.90;;;;;;;;;;4924125;29;20089;-82
2024/01/15 04:48:37;;;;;;;12.25;5.18;;;;;;;;;;4940089;28;20070;-80
2024/01/15 04:51:05;;;;;;;11.30;4.55;;;;;;;;;;4940247;29;20109;-80
2024/01/15 04:53:34;;;;;;;12.02;4.05;;;;;;;;;;4923636;29;20134;-81
2024/01/15 04:56:00;;;;;;;8.80;4.65;;;;;;;;;;4956643;29;20491;-82
2024/01/15 04:58:27;;;;;;;10.65;5.28;;;;;;;;;;4940434;29;20055;-80
2024/01/15 05:00:54;;;;;;;11.73;4.97;;;;;;;;;;4922117;29;20106;-80
2024/01/15 05:03:21;;;;;;;12.40;5.00;;;;;;;;;;4938596;29;20539;-80
2024/01/15 05:05:48;;;;;;;10.10;4.00;;;;;;;;;;4924224;29;20058;-81
2024/01/15 05:08:15;;;;;;;10.57;4.68;;;;;;;;;;4924665;29;20043;-79
2024/01/15 05:10:42;;;;;;;11.63;4.40;;;;;;;;;;4923687;29;20525;-80
2024/01/15 05:13:09;;;;;;;11.38;4.65;;;;;;;;;;4922572;29;20043;-81
2024/01/15 05:15:36;;;;;;;9.65;4.68;;;;;;;;;;4954992;29;20081;-80
2024/01/15 05:18:03;;;;;;;11.95;5.25;;;;;;;;;;4930663;29;20054;-82
2024/01/15 05:20:30;;;;;;;9.70;4.88;;;;;;;;;;4924606;29;20078;-82
2024/01/15 05:22:57;;;;;;;9.45;4.05;;;;;;;;;;4921783;29;20146;-84
2024/01/15 05:25:24;;;;;;;10.43;4.55;;;;;;;;;;4920506;29;20404;-84
2024/01/15 05:27:51;;;;;;;9.85;4.57;;;;;;;;;;4920976;29;20063;-81
2024/01/15 05:30:18;;;;;;;13.45;4.75;;;;;;;;;;4922154;29;20442;-81
2024/01/15 05:32:46;;;;;;;9.40;5.43;;;;;;;;;;4925301;28;20062;-78
2024/01/15 05:35:13;;;;;;;8.82;4.80;;;;;;;;;;4945511;29;20059;-81
2024/01/15 05:37:43;;;;;;;10.65;4.05;;;;;;;;;;4919945;29;20518;-82
2024/01/15 05:40:12;;;;;;;8.68;4.18;;;;;;;;;;4916037;29;20051;-82
2024/01/15 05:42:40;;;;;;;7.57;3.97;;;;;;;;;;4934686;29;20051;-82
2024/01/15 05:45:07;;;;;;;9.52;4.47;;;;;;;;;;4912900;29;20048;-82
2024/01/15 05:47:34;;;;;;;10.52;4.60;;;;;;;;;;4914784;29;20118;-82
2024/01/15 05:50:01;;;;;;;10.65;4.50;;;;;;;;;;4935207;29;20055;-83
2024/01/15 05:52:28;;;;;;;9.02;4.40;;;;;;;;;;4940463;29;20121;-82
2024/01/15 05:54:56;;;;;;;10.35;4.82;;;;;;;;;;4924019;29;20051;-83
2024/01/15 05:57:23;;;;;;;10.43;3.95;;;;;;;;;;4928031;29;20051;-81
2024/01/15 05:59:50;;;;;;;9.35;4.28;;;;;;;;;;4926019;29;20134;-82
2024/01/15 06:02:17;;;;;;;11.35;5.05;;;;;;;;;;4940877;29;20062;-82
2024/01/15 06:04:43;;;;;;;9.95;5.05;;;;;;;;;;4934908;29;20051;-83
2024/01/15 06:07:11;;;;;;;9.68;4.18;;;;;;;;;;4941218;29;20094;-82
2024/01/15 06:09:38;;;;;;;10.27;4.75;;;;;;;;;;4926953;29;20047;-82
2024/01/15 06:12:07;;;;;;;11.65;4.90;;;;;;;;;;4926572;29;20058;-81
2024/01/15 06:14:34;;;;;;;11.50;4.05;;;;;;;;;;4941721;29;20055;-82
2024/01/15 06:17:01;;;;;;;11.75;4.75;;;;;;;;;;4925411;29;20047;-81
2024/01/15 06:19:27;;;;;;;9.95;5.13;;;;;;;;;;4923954;29;20047;-83
2024/01/15 06:21:55;;;;;;;10.70;4.85;;;;;;;;;;4949007;28;20051;-83
2024/01/15 06:24:22;;;;;;;12.18;4.68;;;;;;;;;;4923456;28;20059;-82
2024/01/15 06:26:48;;;;;;;8.05;3.53;;;;;;;;;;4923955;28;20063;-82
2024/01/15 06:29:15;;;;;;;11.48;5.03;;;;;;;;;;4957105;28;20050;-82
2024/01/15 06:31:42;;;;;;;9.18;5.10;;;;;;;;;;4923238;29;20471;-81
2024/01/15 06:34:09;;;;;;;9.63;5.13;;;;;;;;;;4953568;29;20051;-83
2024/01/15 06:36:36;;;;;;;12.55;5.13;;;;;;;;;;4927927;29;20051;-82
2024/01/15 06:39:04;;;;;;;14.18;5.78;;;;;;;;;;4938817;29;20043;-82
2024/01/15 06:41:30;;;;;;;13.00;5.40;;;;;;;;;;4925492;29;20070;-82
2024/01/15 06:43:57;;;;;;;10.52;5.25;;;;;;;;;;4923964;29;20082;-83
2024/01/15 06:46:24;;;;;;;13.35;5.53;;;;;;;;;;4926019;28;20050;-80
2024/01/15 06:48:51;;;;;;;10.52;6.15;;;;;;;;;;4924693;29;20051;-81
2024/01/15 06:51:18;;;;;;;14.85;5.55;;;;;;;;;;4940494;29;20495;-83
2024/01/15 06:53:45;;;;;;;13.20;5.65;;;;;;;;;;4924706;29;20055;-83
2024/01/15 06:56:12;;;;;;;10.77;4.63;;;;;;;;;;4927024;29;20059;-83
2024/01/15 06:58:39;;;;;;;10.57;5.18;;;;;;;;;;4926561;29;20527;-84
2024/01/15 07:01:05;;;;;;;13.30;5.97;;;;;;;;;;4926897;29;20114;-82
2024/01/15 07:03:32;;;;;;;17.33;5.38;;;;;;;;;;4923043;29;20055;-79
2024/01/15 07:06:00;;;;;;;9.93;4.72;;;;;;;;;;4922791;29;20443;-79
2024/01/15 07:08:27;;;;;;;10.75;5.78;;;;;;;;;;4929830;29;20051;-82
2024/01/15 07:10:54;;;;;;;10.88;4.95;;;;;;;;;;4926273;29;20052;-82
2024/01/15 07:13:20;;;;;;;11.73;5.03;;;;;;;;;;4931428;29;20044;-82
2024/01/15 07:15:47;;;;;;;8.95;4.82;;;;;;;;;;4936168;29;20101;-81
2024/01/15 07:18:14;;;;;;;11.70;4.78;;;;;;;;;;4928299;29;20107;-81
2024/01/15 07:20:41;;;;;;;14.30;4.95;;;;;;;;;;4926411;29;20064;-81
2024/01/15 07:23:08;;;;;;;11.73;5.35;;;;;;;;;;4952549;29;20126;-82
2024/01/15 07:25:35;;;;;;;9.32;4.50;;;;;;;;;;4928361;29;20102;-81
2024/01/15 07:28:03;;;;;;;8.77;4.68;;;;;;;;;;4939490;29;20104;-82
2024/01/15 07:30:30;;;;;;;9.23;4.82;;;;;;;;;;4949587;28;20414;-82
2024/01/15 07:32:57;;;;;;;11.05;4.78;;;;;;;;;;4935235;29;20063;-82
2024/01/15 07:35:24;;;;;;;8.55;4.82;;;;;;;;;;4919279;29;20525;-80
2024/01/15 07:37:51;;;;;;;10.20;4.63;;;;;;;;;;4918745;29;20133;-80
2024/01/15 07:40:18;;;;;;;10.98;5.72;;;;;;;;;;4933861;29;20424;-81
2024/01/15 07:42:45;;;;;;;8.70;4.20;;;;;;;;;;4936042;29;20058;-82
2024/01/15 07:45:12;;;;;;;9.75;4.30;;;;;;;;;;4951290;29;20773;-81
2024/01/15 07:47:39;;;;;;;9.65;4.25;;;;;;;;;;4932715;29;20054;-81
2024/01/15 07:50:07;;;;;;;10.27;5.55;;;;;;;;;;4936279;29;20051;-81
2024/01/15 07:52:34;;;;;;;10.95;4.97;;;;;;;;;;4926921;29;20700;-81
2024/01/15 07:55:03;;;;;;;9.20;5.00;;;;;;;;;;4919391;29;20387;-81
2024/01/15 07:57:30;;;;;;;10.70;5.63;;;;;;;;;;4920489;29;20044;-80
2024/01/15 07:59:57;;;;;;;8.13;4.63;;;;;;;;;;4937994;29;20114;-82
2024/01/15 08:02:24;;;;;;;9.27;4.75;;;;;;;;;;4923149;29;20047;-80
2024/01/15 08:04:51;;;;;;;10.77;5.55;;;;;;;;;;4921012;29;20586;-80
2024/01/15 08:07:18;;;;;;;11.70;5.20;;;;;;;;;;4954745;29;20051;-80
2024/01/15 08:09:47;;;;;;;13.32;5.30;;;;;;;;;;4920754;29;20051;-81
2024/01/15 08:12:15;;;;;;;10.20;4.75;;;;;;;;;;4920863;29;20058;-81
2024/01/15 08:14:42;;;;;;;11.02;5.47;;;;;;;;;;4921486;29;20055;-81
2024/01/15 08:17:10;;;;;;;10.88;4.85;;;;;;;;;;4930092;29;20543;-80
2024/01/15 08:19:40;;;;;;;11.73;4.53;;;;;;;;;;4951635;28;20047;-81
2024/01/15 08:22:09;;;;;;;8.93;4.38;;;;;;;;;;4936039;28;20043;-82
2024/01/15 08:24:37;;;;;;;10.02;4.80;;;;;;;;;;4937940;29;20051;-82
2024/01/15 08:27:04;;;;;;;10.90;4.57;;;;;;;;;;4924322;29;20111;-84
2024/01/15 08:29:33;;;;;;;18.40;4.85;;;;;;;;;;4924405;29;20059;-85
2024/01/15 08:32:00;;;;;;;8.82;4.50;;;;;;;;;;4921881;29;20479;-83
2024/01/15 08:34:27;;;;;;;9.70;5.50;;;;;;;;;;4937388;29;20429;-78
2024/01/15 08:36:57;;;;;;;10.10;4.85;;;;;;;;;;4923055;29;20051;-82
2024/01/15 08:39:24;;;;;;;9.45;4.70;;;;;;;;;;4920098;29;20058;-82
2024/01/15 08:41:55;;;;;;;11.02;4.75;;;;;;;;;;4937314;29;20051;-82
2024/01/15 08:44:22;;;;;;;9.57;4.22;;;;;;;;;;4925656;29;20058;-82
2024/01/15 08:46:49;;;;;;;9.52;4.90;;;;;;;;;;4918988;29;20044;-83
2024/01/15 08:49:16;;;;;;;9.68;5.15;;;;;;;;;;4951492;29;20090;-84
2024/01/15 08:51:43;;;;;;;12.63;5.10;;;;;;;;;;4931532;29;20526;-81
2024/01/15 08:54:11;;;;;;;9.25;4.70;;;;;;;;;;4922619;29;20055;-89
2024/01/15 08:56:39;;;;;;;8.95;3.95;;;;;;;;;;4932939;29;20142;-80
2024/01/15 08:59:06;;;;;;;12.32;4.65;;;;;;;;;;4936809;29;20054;-82
2024/01/15 09:01:34;;;;;;;10.40;4.35;;;;;;;;;;4920452;29;20050;-81
2024/01/15 09:04:00;;;;;;;14.00;4.93;;;;;;;;;;4921169;29;20055;-80
2024/01/15 09:06:27;;;;;;;10.45;5.35;;;;;;;;;;4936657;29;20071;-80
2024/01/15 09:08:54;;;;;;;7.85;3.97;;;;;;;;;;4921796;29;20414;-80
2024/01/15 09:11:21;;;;;;;11.30;4.60;;;;;;;;;;4929512;29;20048;-80
2024/01/15 09:13:48;;;;;;;11.07;5.57;;;;;;;;;;4921723;29;20059;-83
2024/01/15 09:16:15;;;;;;;9.25;4.15;;;;;;;;;;4936644;29;20074;-81
2024/01/15 09:18:42;;;;;;;7.47;3.70;;;;;;;;;;4920544;29;20110;-81
2024/01/15 09:21:09;;;;;;;6.32;3.33;;;;;;;;;;4921009;29;20058;-81
2024/01/15 09:23:36;;;;;;;8.65;4.05;;;;;;;;;;4920078;29;20052;-81
2024/01/15 09:26:03;;;;;;;8.77;4.00;;;;;;;;;;4920515;29;20419;-81
2024/01/15 09:28:30;;;;;;;7.22;3.85;;;;;;;;;;4921181;29;20284;-80
2024/01/15 09:30:57;;;;;;;8.23;3.85;;;;;;;;;;4919642;29;20047;-81
2024/01/15 09:33:24;;;;;;;7.20;3.28;;;;;;;;;;4950994;29;20062;-81
2024/01/15 09:35:51;;;;;;;6.10;3.05;;;;;;;;;;4926349;29;20138;-82
2024/01/15 09:38:19;;;;;;;10.25;3.83;;;;;;;;;;4928860;29;20078;-83
2024/01/15 09:40:46;;;;;;;5.38;3.55;;;;;;;;;;4930135;29;20047;-83
2024/01/15 09:43:14;;;;;;;9.88;3.70;;;;;;;;;;4927458;29;20051;-83
2024/01/15 09:45:41;;;;;;;10.75;4.63;;;;;;;;;;4929502;28;20055;-82
2024/01/15 09:48:08;;;;;;;8.27;3.53;;;;;;;;;;4924341;29;20043;-82
2024/01/15 09:50:35;;;;;;;8.68;3.42;;;;;;;;;;4918920;29;20048;-82
2024/01/15 09:53:02;;;;;;;9.00;4.35;;;;;;;;;;4922178;29;20054;-82
2024/01/15 09:55:29;;;;;;;10.10;4.50;;;;;;;;;;4920541;29;20126;-82
2024/01/15 09:57:56;;;;;;;6.82;3.30;;;;;;;;;;4924854;29;20059;-82
2024/01/15 10:00:23;;;;;;;5.70;2.97;;;;;;;;;;4937515;29;20099;-81
2024/01/15 10:02:50;;;;;;;10.02;2.92;;;;;;;;;;4928936;29;20094;-82
2024/01/15 10:05:17;;;;;;;4.70;2.75;;;;;;;;;;4937378;29;20065;-82
2024/01/15 10:07:44;;;;;;;7.07;3.63;;;;;;;;;;4937687;29;20054;-81
2024/01/15 10:10:11;;;;;;;7.05;3.47;;;;;;;;;;4920729;29;20051;-82
2024/01/15 10:12:39;;;;;;;5.32;2.70;;;;;;;;;;4921701;29;20047;-82
2024/01/15 10:15:06;;;;;;;7.70;3.83;;;;;;;;;;4921112;29;20054;-82
2024/01/15 10:17:33;;;;;;;8.70;3.72;;;;;;;;;;4919314;29;20043;-82
2024/01/15 10:20:00;;;;;;;6.72;3.05;;;;;;;;;;4919370;29;20059;-82
2024/01/15 10:22:28;;;;;;;7.97;3.42;;;;;;;;;;4935799;29;20069;-82
2024/01/15 10:24:56;;;;;;;7.57;3.45;;;;;;;;;;4919352;29;20047;-82
2024/01/15 10:27:23;;;;;;;7.55;2.90;;;;;;;;;;4937965;29;20055;-82
2024/01/15 10:29:50;;;;;;;8.65;3.42;;;;;;;;;;4952788;29;20059;-82
2024/01/15 10:32:17;;;;;;;4.55;2.65;;;;;;;;;;4921603;29;20059;-82
2024/01/15 10:34:44;;;;;;;5.80;3.08;;;;;;;;;;4926337;29;20129;-82
2024/01/15 10:37:11;;;;;;;5.57;2.85;;;;;;;;;;4935235;29;20059;-82
2024/01/15 10:39:39;;;;;;;4.72;2.58;;;;;;;;;;4927982;29;20094;-82
2024/01/15 10:42:06;;;;;;;6.65;3.35;;;;;;;;;;4927138;29;20049;-82
2024/01/15 10:44:34;;;;;;;11.25;3.83;;;;;;;;;;4928571;29;20070;-83
2024/01/15 10:47:01;;;;;;;4.45;2.47;;;;;;;;;;4926624;29;20059;-84
2024/01/15 10:49:30;;;;;;;5.90;2.97;;;;;;;;;;4924059;29;20048;-84
2024/01/15 10:52:01;;;;;;;7.55;3.45;;;;;;;;;;4929007;29;20408;-84
2024/01/15 10:54:28;;;;;;;5.18;2.40;;;;;;;;;;4927630;29;20059;-84
2024/01/15 10:56:56;;;;;;;8.48;2.92;;;;;;;;;;4932772;29;20054;-84
2024/01/15 10:59:23;;;;;;;4.80;2.53;;;;;;;;;;4955553;29;20047;-82
2024/01/15 11:01:53;;;;;;;5.43;3.10;;;;;;;;;;4923586;29;20778;-82
2024/01/15 11:04:22;;;;;;;5.57;2.78;;;;;;;;;;4923997;29;20447;-82
2024/01/15 11:06:53;;;;;;;6.97;2.33;;;;;;;;;;4923024;29;20519;-83
2024/01/15 11:09:23;;;;;;;9.52;3.00;;;;;;;;;;4917747;29;20044;-82
2024/01/15 11:11:52;;;;;;;6.35;2.92;;;;;;;;;;4921666;29;20102;-83
2024/01/15 11:14:39;;;;;;;7.95;2.65;;;;;;;;;;4937810;29;20051;-83
2024/01/15 11:17:06;;;;;;;7.15;3.10;;;;;;;;;;4936734;29;20058;-83
2024/01/15 11:19:39;;;;;;;7.50;3.08;;;;;;;;;;4918886;29;20530;-82
2024/01/15 11:22:33;;;;;;;5.25;2.97;;;;;;;;;;4920606;29;20492;-83
2024/01/15 11:25:13;;;;;;;3.92;2.42;;;;;;;;;;4949814;29;20047;-82
2024/01/15 11:27:42;;;;;;;4.05;2.60;;;;;;;;;;4936353;29;20047;-81
2024/01/15 11:30:12;;;;;;;5.75;2.83;;;;;;;;;;4920736;29;20545;-82
2024/01/15 11:32:43;;;;;;;5.90;2.55;;;;;;;;;;4920781;29;20079;-82
2024/01/15 11:35:10;;;;;;;5.55;3.17;;;;;;;;;;4920448;29;20680;-83
2024/01/15 11:37:57;;;;;;;5.82;2.65;;;;;;;;;;4924815;29;20082;-84
2024/01/15 11:40:33;;;;;;;6.63;3.03;;;;;;;;;;4950719;29;20082;-83
2024/01/15 11:43:00;;;;;;;7.10;3.35;;;;;;;;;;4951052;29;20537;-83
2024/01/15 11:45:27;;;;;;;5.78;3.30;;;;;;;;;;4935525;29;20058;-83
2024/01/15 11:48:11;;;;;;;7.30;3.22;;;;;;;;;;4921353;29;20143;-84
2024/01/15 11:50:45;;;;;;;6.75;3.72;;;;;;;;;;4938749;29;20114;-83
2024/01/15 11:53:35;;;;;;;5.03;2.92;;;;;;;;;;4946386;29;20177;-79
2024/01/15 11:56:02;;;;;;;5.60;3.42;;;;;;;;;;4952944;29;20147;-80
2024/01/15 11:58:29;;;;;;;5.07;2.60;;;;;;;;;;4938847;29;20048;-80
2024/01/15 12:00:56;;;;;;;8.52;4.05;;;;;;;;;;4926669;29;20051;-82
2024/01/15 12:03:24;;;;;;;8.23;3.80;;;;;;;;;;4926398;29;20086;-80
2024/01/15 12:05:54;;;;;;;5.68;2.90;;;;;;;;;;4925210;29;20423;-82
2024/01/15 12:08:22;;;;;;;8.27;3.15;;;;;;;;;;4939161;29;20051;-82
2024/01/15 12:10:49;;;;;;;7.03;3.50;;;;;;;;;;4942710;29;20051;-81
2024/01/15 12:13:17;;;;;;;6.95;3.63;;;;;;;;;;4934804;29;20047;-81
2024/01/15 12:15:46;;;;;;;8.77;3.40;;;;;;;;;;4924698;29;20115;-82
2024/01/15 12:18:14;;;;;;;7.18;3.20;;;;;;;;;;4923442;29;20096;-81
2024/01/15 12:20:43;;;;;;;5.97;2.85;;;;;;;;;;4926081;29;20051;-82
2024/01/15 12:23:11;;;;;;;7.25;3.55;;;;;;;;;;4926129;29;20058;-81
2024/01/15 12:25:38;;;;;;;7.20;3.85;;;;;;;;;;4925451;29;20071;-80
2024/01/15 12:28:05;;;;;;;7.32;3.83;;;;;;;;;;4923303;29;20071;-82
2024/01/15 12:30:34;;;;;;;8.57;4.38;;;;;;;;;;4924536;29;20430;-81
2024/01/15 12:33:04;;;;;;;7.32;3.78;;;;;;;;;;4921205;29;20047;-81
2024/01/15 12:35:33;;;;;;;6.20;3.60;;;;;;;;;;4925287;29;20051;-81
2024/01/15 12:38:03;;;;;;;7.28;3.58;;;;;;;;;;4933100;29;20086;-81
2024/01/15 12:40:35;;;;;;;7.28;3.63;;;;;;;;;;4941853;29;20059;-82
2024/01/15 12:43:05;;;;;;;7.07;3.33;;;;;;;;;;4928031;29;20098;-82
2024/01/15 12:45:32;;;;;;;6.40;3.47;;;;;;;;;;4939234;29;20535;-82
2024/01/15 12:48:00;;;;;;;8.63;4.25;;;;;;;;;;4936113;29;20051;-80
2024/01/15 12:50:27;;;;;;;5.63;2.92;;;;;;;;;;4940628;29;20043;-82
2024/01/15 12:52:55;;;;;;;5.95;3.53;;;;;;;;;;4924534;29;20051;-81
2024/01/15 12:55:22;;;;;;;6.13;4.18;;;;;;;;;;4924263;29;20047;-82
2024/01/15 12:57:52;;;;;;;7.03;3.67;;;;;;;;;;4933758;28;20082;-82
2024/01/15 13:00:19;;;;;;;6.80;3.65;;;;;;;;;;4923714;29;20062;-82
2024/01/15 13:02:47;;;;;;;8.07;3.60;;;;;;;;;;4925019;29;20102;-81
2024/01/15 13:05:14;;;;;;;7.18;2.72;;;;;;;;;;4925332;29;20081;-82
2024/01/15 13:07:42;;;;;;;6.95;4.25;;;;;;;;;;4935927;29;20063;-81
2024/01/15 13:10:10;;;;;;;5.43;3.00;;;;;;;;;;4943966;29;20107;-82
2024/01/15 13:12:38;;;;;;;8.18;2.83;;;;;;;;;;4954402;29;20043;-81
2024/01/15 13:15:07;;;;;;;5.80;3.00;;;;;;;;;;4962605;28;20043;-81
2024/01/15 13:17:34;;;;;;;5.40;2.90;;;;;;;;;;4943244;29;20043;-82
2024/01/15 13:20:02;;;;;;;5.95;3.22;;;;;;;;;;4952074;28;20225;-80
2024/01/15 13:22:32;;;;;;;5.95;2.90;;;;;;;;;;4945090;29;20051;-81
2024/01/15 13:25:00;;;;;;;5.38;3.40;;;;;;;;;;4943869;28;20091;-80
2024/01/15 13:27:28;;;;;;;5.75;3.00;;;;;;;;;;4944663;28;20054;-80
2024/01/15 13:29:55;;;;;;;7.70;2.72;;;;;;;;;;4941638;29;20055;-81
2024/01/15 13:32:27;;;;;;;6.63;3.35;;;;;;;;;;4919896;29;20503;-82
2024/01/15 13:34:59;;;;;;;5.90;2.90;;;;;;;;;;4931408;29;20475;-82
2024/01/15 13:37:27;;;;;;;5.50;2.72;;;;;;;;;;4935049;29;20126;-82
2024/01/15 13:39:54;;;;;;;6.47;2.58;;;;;;;;;;4935506;29;20062;-81
2024/01/15 13:42:27;;;;;;;4.22;2.90;;;;;;;;;;4918750;29;20051;-81
2024/01/15 13:44:54;;;;;;;3.90;2.35;;;;;;;;;;4921141;29;20138;-82
2024/01/15 13:47:22;;;;;;;6.78;2.95;;;;;;;;;;4917753;29;20681;-81
2024/01/15 13:49:49;;;;;;;4.72;2.70;;;;;;;;;;4949822;28;20427;-82
2024/01/15 13:52:16;;;;;;;5.43;3.55;;;;;;;;;;4918758;29;20047;-81
2024/01/15 13:54:43;;;;;;;4.63;2.55;;;;;;;;;;4926561;29;20080;-82
2024/01/15 13:57:19;;;;;;;6.82;3.05;;;;;;;;;;4921052;29;20058;-81
2024/01/15 13:59:47;;;;;;;4.18;2.80;;;;;;;;;;4925726;28;20127;-82
2024/01/15 14:02:14;;;;;;;7.13;3.45;;;;;;;;;;4922266;29;20047;-81
2024/01/15 14:04:49;;;;;;;7.13;3.38;;;;;;;;;;4924678;29;20098;-81
2024/01/15 14:07:16;;;;;;;10.10;3.10;;;;;;;;;;4923204;29;20047;-80
2024/01/15 14:09:44;;;;;;;6.28;3.28;;;;;;;;;;4921397;29;20043;-81
2024/01/15 14:12:11;;;;;;;7.90;3.28;;;;;;;;;;4926432;29;20507;-81
2024/01/15 14:14:39;;;;;;;5.10;2.88;;;;;;;;;;4928985;29;20082;-82
2024/01/15 14:17:07;;;;;;;6.05;2.83;;;;;;;;;;4930193;29;20082;-81
2024/01/15 14:19:33;;;;;;;4.43;2.78;;;;;;;;;;4945244;29;20071;-81
2024/01/15 14:22:01;;;;;;;6.55;3.30;;;;;;;;;;4933866;29;20463;-81
2024/01/15 14:24:27;;;;;;;6.93;3.25;;;;;;;;;;4928076;29;20069;-81
2024/01/15 14:26:54;;;;;;;5.47;2.97;;;;;;;;;;4929834;29;20063;-81
2024/01/15 14:29:24;;;;;;;6.38;3.67;;;;;;;;;;4929469;29;20183;-81
2024/01/15 14:31:52;;;;;;;5.78;3.67;;;;;;;;;;4930352;29;20518;-81
2024/01/15 14:34:21;;;;;;;5.15;3.30;;;;;;;;;;4945461;29;20051;-81
2024/01/15 14:36:49;;;;;;;7.32;4.30;;;;;;;;;;4943565;29;20131;-80
2024/01/15 14:39:17;;;;;;;8.32;4.57;;;;;;;;;;4938784;29;20496;-81